Weather at Leonardo da Vinci–Fiumicino Airport

Public forecast

Using degrees Celsius for public forecast. Weather courtesy of forecast.io.

Current aviation weather report (METAR) for Leonardo da Vinci–Fiumicino Airport

Retrieved 2020/10/26 18:20 UTC (0 seconds ago):

LIRF 261820Z 15014KT 9999 SCT018 19/17 Q1009 NOSIG

Aviation forecast (TAF) for Leonardo da Vinci–Fiumicino Airport

Retrieved 2020/10/26 18:00 UTC (6 minutes ago):

TAF LIRF 261700Z 2618/2724 17018G28KT 9999 SCT030 TEMPO 2619/2621 RA BECMG 2621/2623 24015KT TEMPO 2621/2703 4000 TSRA TEMPO 2703/2708 SHRA